createdAt,value
2023-06-25T00:02:21.839Z,47.43
2023-06-25T00:04:49.534Z,46.82
2023-06-25T00:07:18.063Z,46.96
2023-06-25T00:09:53.430Z,47.32
2023-06-25T00:12:21.051Z,47.06
2023-06-25T00:14:50.115Z,47.26
2023-06-25T00:17:18.392Z,47.37
2023-06-25T00:19:46.413Z,47.49
2023-06-25T00:22:14.635Z,47.76
2023-06-25T00:24:42.690Z,47.62
2023-06-25T00:27:10.306Z,47.35
2023-06-25T00:29:38.270Z,47.15
2023-06-25T00:32:08.723Z,47.34
2023-06-25T00:34:41.945Z,46.94
2023-06-25T00:37:17.412Z,47.11
2023-06-25T00:39:46.153Z,47.16
2023-06-25T00:42:14.466Z,47.67
2023-06-25T00:44:43.192Z,47.36
2023-06-25T00:47:14.653Z,47.30
2023-06-25T00:49:42.593Z,47.55
2023-06-25T00:52:12.476Z,47.40
2023-06-25T00:54:41.082Z,47.48
2023-06-25T00:57:10.144Z,47.70
2023-06-25T00:59:41.482Z,47.83
2023-06-25T01:02:17.107Z,47.65
2023-06-25T01:04:52.098Z,47.64
2023-06-25T01:07:24.009Z,47.65
2023-06-25T01:09:52.306Z,47.50
2023-06-25T01:12:19.955Z,47.96
2023-06-25T01:14:50.097Z,47.88
2023-06-25T01:17:19.339Z,47.83
2023-06-25T01:19:47.055Z,48.16
2023-06-25T01:22:18.450Z,47.96
2023-06-25T01:24:50.661Z,48.08
2023-06-25T01:27:18.349Z,48.11
2023-06-25T01:29:46.184Z,48.22
2023-06-25T01:32:14.859Z,47.80
2023-06-25T01:34:42.671Z,48.19
2023-06-25T01:37:10.383Z,48.00
2023-06-25T01:39:38.112Z,48.01
2023-06-25T01:42:07.946Z,48.25
2023-06-25T01:44:35.827Z,48.31
2023-06-25T01:47:03.541Z,48.28
2023-06-25T01:49:33.053Z,48.29
2023-06-25T01:52:01.082Z,48.47
2023-06-25T01:54:29.869Z,48.39
2023-06-25T01:56:57.885Z,48.51
2023-06-25T01:59:28.427Z,48.23
2023-06-25T02:01:56.303Z,48.16
2023-06-25T02:04:24.042Z,48.32
2023-06-25T02:06:51.780Z,48.42
2023-06-25T02:09:19.454Z,48.51
2023-06-25T02:11:47.572Z,48.70
2023-06-25T02:14:15.324Z,48.79
2023-06-25T02:16:44.362Z,48.83
2023-06-25T02:19:12.170Z,48.51
2023-06-25T02:21:39.889Z,48.81
2023-06-25T02:24:07.795Z,48.67
2023-06-25T02:26:35.453Z,48.84
2023-06-25T02:29:03.090Z,48.83
2023-06-25T02:31:31.767Z,48.85
2023-06-25T02:34:00.911Z,48.85
2023-06-25T02:36:28.664Z,48.99
2023-06-25T02:38:56.364Z,48.85
2023-06-25T02:41:24.042Z,48.98
2023-06-25T02:43:51.786Z,49.25
2023-06-25T02:46:19.480Z,49.04
2023-06-25T02:48:47.201Z,49.17
2023-06-25T02:51:16.205Z,49.03
2023-06-25T02:53:43.909Z,49.38
2023-06-25T02:56:11.676Z,49.32
2023-06-25T02:58:39.426Z,49.01
2023-06-25T03:01:07.150Z,49.07
2023-06-25T03:03:34.924Z,48.87
2023-06-25T03:06:02.970Z,49.33
2023-06-25T03:08:32.035Z,49.28
2023-06-25T03:10:59.679Z,49.21
2023-06-25T03:13:27.342Z,49.43
2023-06-25T03:15:55.034Z,49.29
2023-06-25T03:18:22.700Z,49.25
2023-06-25T03:20:50.304Z,49.40
2023-06-25T03:23:18.457Z,49.49
2023-06-25T03:25:47.633Z,49.33
2023-06-25T03:28:15.284Z,49.44
2023-06-25T03:30:42.971Z,49.37
2023-06-25T03:33:10.632Z,49.29
2023-06-25T03:35:38.578Z,49.58
2023-06-25T03:38:06.532Z,49.32
2023-06-25T03:40:34.251Z,49.45
2023-06-25T03:43:03.289Z,49.36
2023-06-25T03:45:30.908Z,49.27
2023-06-25T03:47:58.746Z,49.50
2023-06-25T03:50:26.652Z,49.35
2023-06-25T03:52:54.347Z,49.32
2023-06-25T03:55:22.013Z,49.48
2023-06-25T03:57:51.205Z,49.38
2023-06-25T04:00:20.490Z,49.33
2023-06-25T04:02:48.213Z,49.41
2023-06-25T04:05:15.971Z,49.73
2023-06-25T04:07:43.632Z,49.49
2023-06-25T04:10:11.985Z,49.28
2023-06-25T04:12:39.675Z,49.67
2023-06-25T04:15:08.235Z,49.37
2023-06-25T04:17:37.297Z,49.54
2023-06-25T04:20:05.626Z,49.75
2023-06-25T04:22:33.802Z,49.60
2023-06-25T04:25:01.519Z,49.51
2023-06-25T04:27:29.278Z,49.27
2023-06-25T04:29:56.939Z,49.54
2023-06-25T04:32:25.039Z,49.53
2023-06-25T04:34:54.109Z,49.66
2023-06-25T04:37:21.833Z,49.41
2023-06-25T04:39:49.541Z,49.33
2023-06-25T04:42:17.180Z,48.23
2023-06-25T04:44:44.836Z,46.04
2023-06-25T04:47:12.652Z,43.98
2023-06-25T04:49:40.308Z,41.94
2023-06-25T04:52:09.582Z,39.38
2023-06-25T04:54:37.238Z,37.09
2023-06-25T04:57:05.560Z,35.10
2023-06-25T04:59:33.186Z,34.05
2023-06-25T05:02:00.904Z,33.54
2023-06-25T05:04:28.619Z,33.28
2023-06-25T05:06:57.242Z,33.31
2023-06-25T05:09:26.377Z,34.30
2023-06-25T05:11:54.063Z,35.46
2023-06-25T05:14:21.764Z,36.34
2023-06-25T05:16:49.364Z,37.30
2023-06-25T05:19:16.958Z,37.62
2023-06-25T05:21:44.722Z,37.86
2023-06-25T05:24:12.628Z,38.12
2023-06-25T05:26:41.668Z,38.05
2023-06-25T05:29:09.354Z,38.42
2023-06-25T05:31:36.996Z,38.37
2023-06-25T05:34:04.747Z,38.98
2023-06-25T05:36:32.579Z,38.50
2023-06-25T05:39:00.348Z,37.53
2023-06-25T05:41:28.008Z,36.09
2023-06-25T05:43:56.996Z,34.54
2023-06-25T05:46:24.703Z,34.19
2023-06-25T05:48:52.331Z,33.51
2023-06-25T05:51:20.014Z,33.39
2023-06-25T05:53:48.527Z,34.43
2023-06-25T05:56:17.371Z,36.66
2023-06-25T05:58:45.242Z,38.35
2023-06-25T06:01:15.293Z,39.89
2023-06-25T06:03:43.120Z,40.76
2023-06-25T06:06:10.855Z,41.02
2023-06-25T06:08:38.505Z,41.47
2023-06-25T06:11:06.226Z,41.91
2023-06-25T06:13:33.831Z,42.18
2023-06-25T06:16:01.576Z,42.66
2023-06-25T06:18:30.589Z,42.96
2023-06-25T06:20:58.324Z,42.96
2023-06-25T06:23:26.322Z,43.69
2023-06-25T06:25:54.492Z,43.78
2023-06-25T06:28:22.231Z,43.67
2023-06-25T06:30:49.870Z,43.73
2023-06-25T06:33:17.590Z,43.94
2023-06-25T06:35:46.527Z,44.08
2023-06-25T06:38:14.221Z,44.12
2023-06-25T06:40:41.923Z,44.36
2023-06-25T06:43:09.582Z,44.58
2023-06-25T06:45:37.674Z,44.17
2023-06-25T06:48:06.265Z,45.20
2023-06-25T06:50:34.121Z,45.11
2023-06-25T06:53:03.101Z,45.08
2023-06-25T06:55:30.746Z,45.13
2023-06-25T06:57:58.398Z,45.14
2023-06-25T07:00:26.101Z,45.28
2023-06-25T07:02:56.616Z,45.50
2023-06-25T07:05:24.786Z,45.11
2023-06-25T07:07:52.718Z,45.21
2023-06-25T07:10:21.799Z,45.21
2023-06-25T07:12:49.427Z,45.19
2023-06-25T07:15:17.321Z,45.36
2023-06-25T07:17:45.182Z,45.33
2023-06-25T07:20:13.821Z,45.25
2023-06-25T07:22:41.602Z,45.73
2023-06-25T07:25:11.288Z,45.53
2023-06-25T07:27:40.529Z,45.40
2023-06-25T07:30:09.396Z,45.51
2023-06-25T07:32:37.042Z,45.42
2023-06-25T07:35:05.024Z,45.43
2023-06-25T07:37:32.617Z,45.23
2023-06-25T07:40:00.291Z,45.52
2023-06-25T07:42:27.950Z,45.47
2023-06-25T07:44:57.685Z,45.65
2023-06-25T07:47:25.730Z,45.63
2023-06-25T07:49:53.472Z,45.52
2023-06-25T07:52:21.118Z,45.59
2023-06-25T07:54:48.740Z,45.39
2023-06-25T07:57:16.611Z,45.26
2023-06-25T07:59:52.830Z,45.61
2023-06-25T08:02:23.506Z,45.98
2023-06-25T08:04:52.139Z,45.64
2023-06-25T08:07:20.053Z,45.84
2023-06-25T08:09:49.341Z,45.77
2023-06-25T08:12:18.636Z,45.66
2023-06-25T08:14:47.572Z,45.92
2023-06-25T08:17:15.220Z,45.93
2023-06-25T08:19:44.628Z,45.57
2023-06-25T08:22:12.442Z,45.71
2023-06-25T08:24:40.147Z,45.71
2023-06-25T08:27:07.941Z,45.63
2023-06-25T08:29:35.572Z,45.88
2023-06-25T08:32:03.244Z,45.32
2023-06-25T08:34:30.936Z,45.48
2023-06-25T08:36:59.926Z,45.81
2023-06-25T08:39:27.602Z,45.85
2023-06-25T08:41:55.412Z,45.54
2023-06-25T08:44:24.596Z,45.48
2023-06-25T08:46:54.583Z,45.85
2023-06-25T08:49:24.244Z,45.41
2023-06-25T08:51:55.993Z,45.31
2023-06-25T08:54:25.124Z,45.64
2023-06-25T08:56:52.868Z,45.57
2023-06-25T08:59:20.606Z,45.55
2023-06-25T09:01:48.404Z,45.50
2023-06-25T09:04:16.222Z,45.43
2023-06-25T09:07:02.394Z,45.43
2023-06-25T09:09:32.647Z,45.75
2023-06-25T09:12:00.370Z,45.12
2023-06-25T09:14:28.233Z,45.41
2023-06-25T09:16:57.742Z,45.57
2023-06-25T09:19:25.773Z,45.56
2023-06-25T09:21:53.404Z,45.39
2023-06-25T09:24:22.641Z,45.04
2023-06-25T09:26:53.068Z,45.22
2023-06-25T09:29:21.985Z,45.43
2023-06-25T09:31:50.626Z,45.29
2023-06-25T09:34:19.832Z,45.27
2023-06-25T09:36:47.723Z,45.52
2023-06-25T09:39:15.423Z,45.37
2023-06-25T09:41:43.755Z,44.89
2023-06-25T09:44:13.175Z,45.01
2023-06-25T09:46:42.837Z,45.17
2023-06-25T09:49:10.642Z,44.95
2023-06-25T09:51:50.534Z,44.95
2023-06-25T09:54:23.061Z,45.32
2023-06-25T09:56:51.950Z,45.06
2023-06-25T09:59:22.541Z,45.16
2023-06-25T10:01:51.845Z,45.15
2023-06-25T10:04:19.856Z,44.87
2023-06-25T10:06:49.022Z,45.06
2023-06-25T10:09:16.803Z,45.00
2023-06-25T10:11:51.209Z,44.91
2023-06-25T10:14:18.876Z,45.33
2023-06-25T10:16:54.756Z,44.91
2023-06-25T10:19:23.255Z,44.70
2023-06-25T10:22:01.390Z,44.56
2023-06-25T10:24:39.557Z,44.96
2023-06-25T10:27:07.201Z,44.81
2023-06-25T10:29:40.900Z,45.14
2023-06-25T10:32:10.069Z,44.75
2023-06-25T10:34:38.662Z,44.82
2023-06-25T10:37:07.069Z,44.88
2023-06-25T10:39:38.880Z,44.67
2023-06-25T10:42:07.632Z,44.80
2023-06-25T10:44:35.923Z,44.76
2023-06-25T10:47:04.745Z,44.74
2023-06-25T10:49:33.798Z,44.54
2023-06-25T10:52:02.301Z,44.63
2023-06-25T10:54:30.295Z,44.26
2023-06-25T10:57:07.451Z,44.48
2023-06-25T10:59:35.212Z,44.12
2023-06-25T11:02:13.995Z,44.18
2023-06-25T11:04:44.021Z,44.33
2023-06-25T11:07:12.673Z,44.03
2023-06-25T11:09:40.518Z,43.88
2023-06-25T11:12:09.253Z,43.52
2023-06-25T11:14:36.926Z,44.18
2023-06-25T11:17:04.890Z,44.31
2023-06-25T11:19:33.230Z,43.67
2023-06-25T11:22:06.465Z,44.11
2023-06-25T11:24:35.968Z,43.33
2023-06-25T11:27:04.014Z,43.80
2023-06-25T11:29:38.292Z,43.78
2023-06-25T11:32:09.228Z,43.47
2023-06-25T11:34:37.269Z,44.34
2023-06-25T11:37:13.259Z,43.95
2023-06-25T11:39:45.352Z,43.90
2023-06-25T11:42:17.700Z,43.85
2023-06-25T11:44:46.260Z,44.03
2023-06-25T11:47:16.564Z,43.69
2023-06-25T11:49:53.903Z,43.58
2023-06-25T11:52:23.178Z,43.58
2023-06-25T11:54:51.381Z,43.97
2023-06-25T11:57:19.866Z,43.62
2023-06-25T11:59:47.705Z,43.76
2023-06-25T12:02:15.430Z,43.78
2023-06-25T12:04:43.149Z,43.56
2023-06-25T12:07:10.921Z,43.84
2023-06-25T12:09:39.938Z,43.58
2023-06-25T12:12:08.253Z,43.92
2023-06-25T12:14:36.056Z,43.76
2023-06-25T12:17:04.750Z,43.45
2023-06-25T12:19:32.577Z,43.71
2023-06-25T12:22:00.523Z,43.57
2023-06-25T12:24:28.247Z,43.89
2023-06-25T12:26:57.244Z,43.38
2023-06-25T12:29:24.932Z,43.39
2023-06-25T12:31:52.674Z,42.50
2023-06-25T12:34:20.458Z,43.57
2023-06-25T12:36:48.142Z,43.42
2023-06-25T12:39:15.874Z,43.80
2023-06-25T12:41:43.522Z,42.68
2023-06-25T12:44:12.557Z,43.27
2023-06-25T12:46:41.008Z,43.25
2023-06-25T12:49:08.731Z,43.22
2023-06-25T12:51:36.438Z,43.72
2023-06-25T12:54:04.245Z,43.46
2023-06-25T12:56:32.254Z,43.49
2023-06-25T12:58:59.923Z,43.38
2023-06-25T13:01:29.107Z,43.07
2023-06-25T13:03:56.826Z,43.43
2023-06-25T13:06:24.966Z,43.37
2023-06-25T13:08:52.682Z,43.55
2023-06-25T13:11:20.342Z,43.66
2023-06-25T13:13:48.039Z,43.77
2023-06-25T13:16:15.670Z,43.17
2023-06-25T13:18:44.657Z,43.61
2023-06-25T13:21:12.343Z,43.31
2023-06-25T13:23:40.010Z,43.03
2023-06-25T13:26:07.654Z,43.09
2023-06-25T13:28:35.381Z,42.96
2023-06-25T13:31:03.070Z,43.33
2023-06-25T13:33:30.783Z,42.59
2023-06-25T13:35:59.835Z,42.77
2023-06-25T13:38:27.549Z,42.79
2023-06-25T13:40:55.165Z,43.19
2023-06-25T13:43:22.887Z,42.93
2023-06-25T13:45:50.780Z,42.98
2023-06-25T13:48:18.454Z,43.11
2023-06-25T13:50:46.255Z,42.79
2023-06-25T13:53:15.318Z,41.70
2023-06-25T13:55:43.001Z,42.86
2023-06-25T13:58:10.651Z,42.72
2023-06-25T14:00:38.383Z,42.61
2023-06-25T14:03:13.448Z,41.46
2023-06-25T14:05:41.705Z,39.79
2023-06-25T14:08:09.406Z,41.95
2023-06-25T14:10:38.493Z,42.39
2023-06-25T14:13:06.297Z,42.50
2023-06-25T14:15:34.091Z,42.64
2023-06-25T14:18:01.868Z,42.33
2023-06-25T14:20:29.564Z,42.35
2023-06-25T14:23:01.205Z,42.64
2023-06-25T14:25:29.501Z,42.36
2023-06-25T14:27:58.918Z,42.68
2023-06-25T14:30:26.686Z,42.78
2023-06-25T14:32:54.579Z,42.61
2023-06-25T14:35:22.269Z,42.80
2023-06-25T14:37:49.998Z,42.34
2023-06-25T14:40:17.689Z,42.44
2023-06-25T14:42:45.340Z,42.48
2023-06-25T14:45:14.353Z,42.29
2023-06-25T14:47:42.007Z,42.44
2023-06-25T14:50:10.504Z,42.07
2023-06-25T14:52:38.105Z,41.87
2023-06-25T14:55:06.229Z,42.06
2023-06-25T14:57:34.018Z,42.30
2023-06-25T15:00:01.809Z,42.42
2023-06-25T15:02:31.156Z,42.14
2023-06-25T15:04:58.948Z,42.28
2023-06-25T15:07:26.765Z,42.08
2023-06-25T15:09:54.565Z,42.45
2023-06-25T15:12:22.228Z,42.08
2023-06-25T15:14:49.922Z,42.17
2023-06-25T15:17:17.599Z,42.28
2023-06-25T15:19:46.637Z,42.22
2023-06-25T15:22:14.626Z,42.59
2023-06-25T15:24:42.454Z,42.26
2023-06-25T15:27:10.023Z,41.83
2023-06-25T15:29:38.450Z,42.09
2023-06-25T15:32:06.797Z,42.35
2023-06-25T15:34:34.394Z,42.06
2023-06-25T15:37:04.181Z,41.95
2023-06-25T15:39:32.015Z,42.09
2023-06-25T15:41:59.651Z,42.39
2023-06-25T15:44:27.374Z,42.20
2023-06-25T15:46:55.030Z,42.12
2023-06-25T15:49:22.645Z,41.93
2023-06-25T15:51:50.326Z,41.91
2023-06-25T15:54:25.674Z,41.95
2023-06-25T15:56:54.074Z,42.17
2023-06-25T15:59:22.279Z,42.33
2023-06-25T16:01:50.039Z,42.42
2023-06-25T16:04:17.766Z,42.00
2023-06-25T16:06:45.478Z,41.87
2023-06-25T16:09:13.126Z,41.93
2023-06-25T16:11:42.108Z,41.87
2023-06-25T16:14:09.767Z,42.11
2023-06-25T16:16:37.454Z,41.91
2023-06-25T16:19:29.669Z,42.13
2023-06-25T16:21:52.689Z,42.39
2023-06-25T16:24:20.460Z,42.03
2023-06-25T16:26:49.619Z,42.20
2023-06-25T16:29:19.231Z,42.29
2023-06-25T16:31:49.151Z,42.12
2023-06-25T16:34:16.829Z,42.11
2023-06-25T16:36:44.452Z,42.06
2023-06-25T16:39:12.193Z,42.16
2023-06-25T16:41:39.888Z,41.87
2023-06-25T16:44:08.936Z,41.96
2023-06-25T16:46:36.852Z,41.97
2023-06-25T16:49:04.899Z,42.54
2023-06-25T16:51:32.598Z,42.33
2023-06-25T16:54:01.576Z,42.55
2023-06-25T16:56:30.122Z,42.00
2023-06-25T16:58:59.197Z,41.89
2023-06-25T17:01:28.236Z,42.06
2023-06-25T17:03:56.042Z,42.27
2023-06-25T17:06:23.750Z,42.07
2023-06-25T17:08:52.437Z,42.32
2023-06-25T17:11:20.133Z,42.32
2023-06-25T17:13:47.802Z,42.18
2023-06-25T17:16:15.477Z,42.13
2023-06-25T17:18:44.431Z,42.36
2023-06-25T17:21:12.066Z,42.41
2023-06-25T17:23:39.794Z,42.24
2023-06-25T17:26:08.472Z,42.57
2023-06-25T17:28:36.165Z,42.62
2023-06-25T17:31:03.825Z,42.19
2023-06-25T17:33:31.488Z,42.31
2023-06-25T17:36:00.584Z,42.64
2023-06-25T17:38:28.226Z,42.88
2023-06-25T17:40:55.883Z,42.64
2023-06-25T17:43:24.117Z,42.42
2023-06-25T17:45:52.868Z,42.18
2023-06-25T17:48:20.498Z,42.70
2023-06-25T17:50:48.232Z,42.66
2023-06-25T17:53:18.059Z,42.62
2023-06-25T17:55:47.737Z,42.69
2023-06-25T17:58:15.438Z,42.47
2023-06-25T18:00:44.089Z,42.48
2023-06-25T18:03:11.857Z,42.72
2023-06-25T18:05:39.787Z,42.25
2023-06-25T18:08:07.631Z,42.67
2023-06-25T18:10:36.567Z,42.49
2023-06-25T18:13:04.272Z,42.38
2023-06-25T18:15:39.813Z,42.54
2023-06-25T18:18:07.582Z,42.41
2023-06-25T18:20:35.348Z,42.21
2023-06-25T18:23:03.024Z,42.82
2023-06-25T18:25:30.840Z,42.66
2023-06-25T18:27:59.947Z,42.70
2023-06-25T18:30:27.655Z,42.50
2023-06-25T18:32:55.399Z,42.35
2023-06-25T18:35:23.745Z,42.53
2023-06-25T18:37:51.335Z,42.82
2023-06-25T18:40:19.038Z,42.76
2023-06-25T18:42:46.667Z,42.71
2023-06-25T18:45:15.819Z,42.71
2023-06-25T18:47:43.484Z,42.79
2023-06-25T18:50:11.150Z,42.87
2023-06-25T18:52:38.805Z,43.00
2023-06-25T18:55:07.250Z,42.94
2023-06-25T18:57:34.966Z,43.14
2023-06-25T19:00:02.673Z,43.01
2023-06-25T19:02:31.898Z,42.92
2023-06-25T19:05:00.370Z,43.06
2023-06-25T19:07:28.143Z,43.32
2023-06-25T19:09:56.067Z,42.89
2023-06-25T19:12:24.525Z,42.99
2023-06-25T19:14:52.270Z,43.08
2023-06-25T19:17:20.031Z,43.03
2023-06-25T19:19:49.121Z,43.03
2023-06-25T19:22:16.988Z,42.72
2023-06-25T19:24:44.654Z,42.67
2023-06-25T19:27:12.289Z,42.52
2023-06-25T19:29:39.985Z,42.35
2023-06-25T19:32:08.827Z,42.65
2023-06-25T19:34:36.670Z,42.33
2023-06-25T19:37:06.097Z,41.81
2023-06-25T19:39:33.812Z,41.98
2023-06-25T19:42:01.497Z,42.30
2023-06-25T19:44:29.109Z,42.43
2023-06-25T19:46:56.865Z,42.34
2023-06-25T19:49:24.548Z,42.13
2023-06-25T19:51:52.250Z,42.38
2023-06-25T19:54:21.235Z,42.65
2023-06-25T19:56:48.998Z,42.38
2023-06-25T19:59:16.709Z,42.12
2023-06-25T20:01:44.497Z,42.42
2023-06-25T20:04:12.258Z,41.32
2023-06-25T20:06:41.362Z,41.71
2023-06-25T20:09:09.753Z,42.33
2023-06-25T20:11:38.912Z,42.32
2023-06-25T20:14:06.605Z,42.22
2023-06-25T20:16:34.259Z,42.45
2023-06-25T20:19:01.933Z,42.54
2023-06-25T20:21:29.663Z,42.85
2023-06-25T20:23:57.573Z,42.37
2023-06-25T20:26:27.224Z,42.58
2023-06-25T20:28:56.666Z,42.63
2023-06-25T20:31:24.424Z,42.56
2023-06-25T20:33:52.233Z,43.11
2023-06-25T20:36:19.895Z,42.90
2023-06-25T20:38:47.502Z,42.93
2023-06-25T20:41:31.723Z,42.98
2023-06-25T20:44:02.864Z,43.38
2023-06-25T20:46:30.647Z,43.52
2023-06-25T20:48:58.401Z,43.61
2023-06-25T20:51:26.516Z,43.69
2023-06-25T20:53:54.191Z,43.62
2023-06-25T20:56:21.981Z,43.62
2023-06-25T20:58:49.647Z,43.43
2023-06-25T21:01:18.710Z,43.85
2023-06-25T21:03:46.427Z,43.71
2023-06-25T21:06:14.141Z,43.93
2023-06-25T21:08:42.936Z,43.94
2023-06-25T21:11:10.651Z,43.14
2023-06-25T21:13:38.575Z,43.11
2023-06-25T21:16:06.554Z,43.83
2023-06-25T21:18:35.634Z,43.92
2023-06-25T21:21:03.267Z,44.21
2023-06-25T21:23:30.884Z,44.13
2023-06-25T21:25:58.577Z,44.22
2023-06-25T21:28:26.203Z,44.26
2023-06-25T21:30:54.186Z,44.48
2023-06-25T21:33:21.845Z,44.33
2023-06-25T21:35:50.892Z,44.30
2023-06-25T21:38:18.524Z,44.33
2023-06-25T21:40:46.246Z,43.87
2023-06-25T21:43:13.851Z,43.95
2023-06-25T21:45:43.887Z,43.72
2023-06-25T21:48:11.610Z,44.27
2023-06-25T21:50:39.669Z,44.37
2023-06-25T21:53:10.618Z,44.29
2023-06-25T21:55:39.389Z,44.11
2023-06-25T21:58:07.324Z,43.98
2023-06-25T22:00:35.095Z,44.39
2023-06-25T22:03:03.022Z,44.46
2023-06-25T22:05:30.675Z,44.51
2023-06-25T22:07:58.318Z,44.95
2023-06-25T22:10:27.349Z,45.03
2023-06-25T22:12:55.000Z,44.97
2023-06-25T22:15:22.829Z,44.97
2023-06-25T22:17:50.963Z,45.02
2023-06-25T22:20:18.812Z,44.88
2023-06-25T22:22:46.533Z,44.80
2023-06-25T22:25:14.616Z,44.82
2023-06-25T22:27:51.892Z,44.94
2023-06-25T22:30:20.976Z,44.96
2023-06-25T22:32:49.459Z,44.95
2023-06-25T22:35:17.479Z,44.91
2023-06-25T22:37:45.482Z,44.79
2023-06-25T22:40:13.170Z,45.32
2023-06-25T22:42:40.845Z,45.30
2023-06-25T22:45:10.296Z,45.11
2023-06-25T22:47:40.113Z,45.13
2023-06-25T22:50:08.784Z,45.29
2023-06-25T22:52:36.507Z,45.36
2023-06-25T22:55:04.237Z,45.31
2023-06-25T22:57:31.885Z,45.63
2023-06-25T22:59:59.536Z,45.64
2023-06-25T23:02:28.662Z,45.77
2023-06-25T23:04:57.274Z,45.56
2023-06-25T23:07:25.126Z,45.87
2023-06-25T23:09:52.830Z,45.79
2023-06-25T23:12:20.518Z,45.50
2023-06-25T23:14:48.254Z,45.60
2023-06-25T23:17:16.096Z,45.72
2023-06-25T23:19:45.814Z,45.32
2023-06-25T23:22:14.496Z,45.78
2023-06-25T23:24:45.107Z,45.85
2023-06-25T23:27:13.529Z,45.98
2023-06-25T23:29:41.820Z,46.06
2023-06-25T23:32:12.766Z,45.86
2023-06-25T23:34:40.402Z,46.94
2023-06-25T23:37:09.419Z,46.11
2023-06-25T23:39:37.728Z,46.14
2023-06-25T23:42:06.120Z,46.46
2023-06-25T23:44:34.143Z,46.42
2023-06-25T23:47:01.778Z,46.40
2023-06-25T23:49:29.446Z,46.30
2023-06-25T23:51:57.136Z,46.58
2023-06-25T23:54:26.121Z,46.39
2023-06-25T23:56:53.763Z,46.61
2023-06-25T23:59:21.430Z,46.48
